sensor_id;sensor_type;location;lat;lon;timestamp;temperature;humidity
7846;DHT22;3968;51.424;6.788;2022-07-29T00:00:45;20.40;99.90
7846;DHT22;3968;51.424;6.788;2022-07-29T00:03:12;20.40;99.90
7846;DHT22;3968;51.424;6.788;2022-07-29T00:05:42;20.40;99.90
7846;DHT22;3968;51.424;6.788;2022-07-29T00:08:08;20.40;99.90
7846;DHT22;3968;51.424;6.788;2022-07-29T00:10:34;20.40;99.90
7846;DHT22;3968;51.424;6.788;2022-07-29T00:13:00;20.40;99.90
7846;DHT22;3968;51.424;6.788;2022-07-29T00:15:29;20.30;99.90
7846;DHT22;3968;51.424;6.788;2022-07-29T00:17:55;20.30;99.90
7846;DHT22;3968;51.424;6.788;2022-07-29T00:20:20;20.30;99.90
7846;DHT22;3968;51.424;6.788;2022-07-29T00:22:46;20.30;99.90
7846;DHT22;3968;51.424;6.788;2022-07-29T00:25:13;20.30;99.90
7846;DHT22;3968;51.424;6.788;2022-07-29T00:27:38;20.30;99.90
7846;DHT22;3968;51.424;6.788;2022-07-29T00:30:05;20.30;99.90
7846;DHT22;3968;51.424;6.788;2022-07-29T00:32:31;20.20;99.90
7846;DHT22;3968;51.424;6.788;2022-07-29T00:34:57;20.20;99.90
7846;DHT22;3968;51.424;6.788;2022-07-29T00:37:41;20.20;99.90
7846;DHT22;3968;51.424;6.788;2022-07-29T00:40:07;20.20;99.90
7846;DHT22;3968;51.424;6.788;2022-07-29T00:42:47;20.20;99.90
7846;DHT22;3968;51.424;6.788;2022-07-29T00:45:14;20.10;99.90
7846;DHT22;3968;51.424;6.788;2022-07-29T00:47:40;20.10;99.90
7846;DHT22;3968;51.424;6.788;2022-07-29T00:50:07;20.00;99.90
7846;DHT22;3968;51.424;6.788;2022-07-29T00:52:36;20.10;99.90
7846;DHT22;3968;51.424;6.788;2022-07-29T00:55:08;20.00;99.90
7846;DHT22;3968;51.424;6.788;2022-07-29T00:57:35;20.00;99.90
7846;DHT22;3968;51.424;6.788;2022-07-29T01:00:04;20.00;99.90
7846;DHT22;3968;51.424;6.788;2022-07-29T01:02:31;20.00;99.90
7846;DHT22;3968;51.424;6.788;2022-07-29T01:04:57;19.90;99.90
7846;DHT22;3968;51.424;6.788;2022-07-29T01:07:24;19.90;99.90
7846;DHT22;3968;51.424;6.788;2022-07-29T01:09:51;19.90;99.90
7846;DHT22;3968;51.424;6.788;2022-07-29T01:12:21;19.90;99.90
7846;DHT22;3968;51.424;6.788;2022-07-29T01:14:47;19.90;99.90
7846;DHT22;3968;51.424;6.788;2022-07-29T01:17:28;19.90;99.90
7846;DHT22;3968;51.424;6.788;2022-07-29T01:20:09;19.90;99.90
7846;DHT22;3968;51.424;6.788;2022-07-29T01:22:46;19.90;99.90
7846;DHT22;3968;51.424;6.788;2022-07-29T01:30:22;19.90;99.90
7846;DHT22;3968;51.424;6.788;2022-07-29T01:32:50;19.90;99.90
7846;DHT22;3968;51.424;6.788;2022-07-29T01:35:27;19.80;99.90
7846;DHT22;3968;51.424;6.788;2022-07-29T01:40:58;19.80;99.90
7846;DHT22;3968;51.424;6.788;2022-07-29T01:43:35;19.80;99.90
7846;DHT22;3968;51.424;6.788;2022-07-29T01:46:06;19.80;99.90
7846;DHT22;3968;51.424;6.788;2022-07-29T01:48:47;19.80;99.90
7846;DHT22;3968;51.424;6.788;2022-07-29T01:51:36;19.80;99.90
7846;DHT22;3968;51.424;6.788;2022-07-29T01:54:10;19.80;99.90
7846;DHT22;3968;51.424;6.788;2022-07-29T01:56:39;19.80;99.90
7846;DHT22;3968;51.424;6.788;2022-07-29T01:59:06;19.80;99.90
7846;DHT22;3968;51.424;6.788;2022-07-29T02:01:36;19.80;99.90
7846;DHT22;3968;51.424;6.788;2022-07-29T02:04:04;19.70;99.90
7846;DHT22;3968;51.424;6.788;2022-07-29T02:06:32;19.70;99.90
7846;DHT22;3968;51.424;6.788;2022-07-29T02:09:02;19.70;99.90
7846;DHT22;3968;51.424;6.788;2022-07-29T02:11:31;19.70;99.90
7846;DHT22;3968;51.424;6.788;2022-07-29T02:13:58;19.60;99.90
7846;DHT22;3968;51.424;6.788;2022-07-29T02:16:27;19.70;99.90
7846;DHT22;3968;51.424;6.788;2022-07-29T02:18:56;19.60;99.90
7846;DHT22;3968;51.424;6.788;2022-07-29T02:21:25;19.60;99.90
7846;DHT22;3968;51.424;6.788;2022-07-29T02:23:56;19.60;99.90
7846;DHT22;3968;51.424;6.788;2022-07-29T02:26:25;19.60;99.90
7846;DHT22;3968;51.424;6.788;2022-07-29T02:28:54;19.60;99.90
7846;DHT22;3968;51.424;6.788;2022-07-29T02:31:25;19.60;99.90
7846;DHT22;3968;51.424;6.788;2022-07-29T02:33:53;19.60;99.90
7846;DHT22;3968;51.424;6.788;2022-07-29T02:36:22;19.70;99.90
7846;DHT22;3968;51.424;6.788;2022-07-29T02:38:48;19.90;99.90
7846;DHT22;3968;51.424;6.788;2022-07-29T02:41:27;19.90;99.90
7846;DHT22;3968;51.424;6.788;2022-07-29T02:44:11;19.90;99.90
7846;DHT22;3968;51.424;6.788;2022-07-29T02:46:49;19.70;99.90
7846;DHT22;3968;51.424;6.788;2022-07-29T02:51:54;19.60;99.90
7846;DHT22;3968;51.424;6.788;2022-07-29T02:56:57;19.80;99.90
7846;DHT22;3968;51.424;6.788;2022-07-29T02:59:26;19.70;99.90
7846;DHT22;3968;51.424;6.788;2022-07-29T03:01:55;19.60;99.90
7846;DHT22;3968;51.424;6.788;2022-07-29T03:04:23;19.50;99.90
7846;DHT22;3968;51.424;6.788;2022-07-29T03:06:53;19.50;99.90
7846;DHT22;3968;51.424;6.788;2022-07-29T03:09:20;19.50;99.90
7846;DHT22;3968;51.424;6.788;2022-07-29T03:11:47;19.50;99.90
7846;DHT22;3968;51.424;6.788;2022-07-29T03:14:13;19.40;99.90
7846;DHT22;3968;51.424;6.788;2022-07-29T03:16:39;19.20;99.90
7846;DHT22;3968;51.424;6.788;2022-07-29T03:19:05;19.20;99.90
7846;DHT22;3968;51.424;6.788;2022-07-29T03:21:31;19.20;99.90
7846;DHT22;3968;51.424;6.788;2022-07-29T03:23:57;19.20;99.90
7846;DHT22;3968;51.424;6.788;2022-07-29T03:26:23;19.20;99.90
7846;DHT22;3968;51.424;6.788;2022-07-29T03:28:49;19.00;99.90
7846;DHT22;3968;51.424;6.788;2022-07-29T03:31:14;19.00;99.90
7846;DHT22;3968;51.424;6.788;2022-07-29T03:33:40;19.10;99.90
7846;DHT22;3968;51.424;6.788;2022-07-29T03:36:06;19.10;99.90
7846;DHT22;3968;51.424;6.788;2022-07-29T03:38:34;19.00;99.90
7846;DHT22;3968;51.424;6.788;2022-07-29T03:41:05;19.20;99.90
7846;DHT22;3968;51.424;6.788;2022-07-29T03:43:36;19.30;99.90
7846;DHT22;3968;51.424;6.788;2022-07-29T03:46:04;19.30;99.90
7846;DHT22;3968;51.424;6.788;2022-07-29T03:48:33;19.20;99.90
7846;DHT22;3968;51.424;6.788;2022-07-29T03:51:01;19.20;99.90
7846;DHT22;3968;51.424;6.788;2022-07-29T03:53:27;19.20;99.90
7846;DHT22;3968;51.424;6.788;2022-07-29T03:55:56;19.00;99.90
7846;DHT22;3968;51.424;6.788;2022-07-29T03:58:26;18.90;99.90
7846;DHT22;3968;51.424;6.788;2022-07-29T04:00:53;18.80;99.90
7846;DHT22;3968;51.424;6.788;2022-07-29T04:03:20;18.90;99.90
7846;DHT22;3968;51.424;6.788;2022-07-29T04:06:06;18.80;99.90
7846;DHT22;3968;51.424;6.788;2022-07-29T04:08:33;18.80;99.90
7846;DHT22;3968;51.424;6.788;2022-07-29T04:11:00;18.80;99.90
7846;DHT22;3968;51.424;6.788;2022-07-29T04:13:26;18.70;99.90
7846;DHT22;3968;51.424;6.788;2022-07-29T04:15:52;18.60;99.90
7846;DHT22;3968;51.424;6.788;2022-07-29T04:18:17;18.40;99.90
7846;DHT22;3968;51.424;6.788;2022-07-29T04:20:43;18.40;99.90
7846;DHT22;3968;51.424;6.788;2022-07-29T04:23:09;18.30;99.90
7846;DHT22;3968;51.424;6.788;2022-07-29T04:25:39;18.20;99.90
7846;DHT22;3968;51.424;6.788;2022-07-29T04:28:06;18.10;99.90
7846;DHT22;3968;51.424;6.788;2022-07-29T04:30:32;18.00;99.90
7846;DHT22;3968;51.424;6.788;2022-07-29T04:33:00;18.00;99.90
7846;DHT22;3968;51.424;6.788;2022-07-29T04:35:27;17.90;99.90
7846;DHT22;3968;51.424;6.788;2022-07-29T04:37:53;17.90;99.90
7846;DHT22;3968;51.424;6.788;2022-07-29T04:40:19;17.90;99.90
7846;DHT22;3968;51.424;6.788;2022-07-29T04:42:46;17.90;99.90
7846;DHT22;3968;51.424;6.788;2022-07-29T04:45:12;17.90;99.90
7846;DHT22;3968;51.424;6.788;2022-07-29T04:47:40;17.80;99.90
7846;DHT22;3968;51.424;6.788;2022-07-29T04:50:07;17.70;99.90
7846;DHT22;3968;51.424;6.788;2022-07-29T04:52:33;17.70;99.90
7846;DHT22;3968;51.424;6.788;2022-07-29T04:55:00;17.70;99.90
7846;DHT22;3968;51.424;6.788;2022-07-29T04:57:26;17.60;99.90
7846;DHT22;3968;51.424;6.788;2022-07-29T04:59:52;17.60;99.90
7846;DHT22;3968;51.424;6.788;2022-07-29T05:02:17;17.60;99.90
7846;DHT22;3968;51.424;6.788;2022-07-29T05:04:43;17.60;99.90
7846;DHT22;3968;51.424;6.788;2022-07-29T05:07:09;17.60;99.90
7846;DHT22;3968;51.424;6.788;2022-07-29T05:09:35;17.60;99.90
7846;DHT22;3968;51.424;6.788;2022-07-29T05:12:00;17.60;99.90
7846;DHT22;3968;51.424;6.788;2022-07-29T05:14:26;17.70;99.90
7846;DHT22;3968;51.424;6.788;2022-07-29T05:16:54;17.70;99.90
7846;DHT22;3968;51.424;6.788;2022-07-29T05:19:22;17.60;99.90
7846;DHT22;3968;51.424;6.788;2022-07-29T05:21:48;17.60;99.90
7846;DHT22;3968;51.424;6.788;2022-07-29T05:24:14;17.60;99.90
7846;DHT22;3968;51.424;6.788;2022-07-29T05:26:40;17.50;99.90
7846;DHT22;3968;51.424;6.788;2022-07-29T05:29:08;17.30;99.90
7846;DHT22;3968;51.424;6.788;2022-07-29T05:31:34;17.30;99.90
7846;DHT22;3968;51.424;6.788;2022-07-29T05:34:00;17.30;99.90
7846;DHT22;3968;51.424;6.788;2022-07-29T05:36:25;17.20;99.90
7846;DHT22;3968;51.424;6.788;2022-07-29T05:38:51;17.30;99.90
7846;DHT22;3968;51.424;6.788;2022-07-29T05:41:20;17.30;99.90
7846;DHT22;3968;51.424;6.788;2022-07-29T05:43:46;17.40;99.90
7846;DHT22;3968;51.424;6.788;2022-07-29T05:46:12;17.40;99.90
7846;DHT22;3968;51.424;6.788;2022-07-29T05:48:39;17.40;99.90
7846;DHT22;3968;51.424;6.788;2022-07-29T05:51:05;17.40;99.90
7846;DHT22;3968;51.424;6.788;2022-07-29T05:53:31;17.50;99.90
7846;DHT22;3968;51.424;6.788;2022-07-29T05:55:57;17.60;99.90
7846;DHT22;3968;51.424;6.788;2022-07-29T05:58:22;17.50;99.90
7846;DHT22;3968;51.424;6.788;2022-07-29T06:00:48;17.50;99.90
7846;DHT22;3968;51.424;6.788;2022-07-29T06:03:14;17.40;99.90
7846;DHT22;3968;51.424;6.788;2022-07-29T06:05:40;17.40;99.90
7846;DHT22;3968;51.424;6.788;2022-07-29T06:08:06;17.40;99.90
7846;DHT22;3968;51.424;6.788;2022-07-29T06:10:35;17.40;99.90
7846;DHT22;3968;51.424;6.788;2022-07-29T06:13:01;17.50;99.90
7846;DHT22;3968;51.424;6.788;2022-07-29T06:15:27;17.50;99.90
7846;DHT22;3968;51.424;6.788;2022-07-29T06:17:53;17.60;99.90
7846;DHT22;3968;51.424;6.788;2022-07-29T06:20:19;17.70;99.90
7846;DHT22;3968;51.424;6.788;2022-07-29T06:22:44;17.80;99.90
7846;DHT22;3968;51.424;6.788;2022-07-29T06:25:10;17.90;99.90
7846;DHT22;3968;51.424;6.788;2022-07-29T06:27:37;18.10;99.90
7846;DHT22;3968;51.424;6.788;2022-07-29T06:30:03;18.20;99.90
7846;DHT22;3968;51.424;6.788;2022-07-29T06:32:32;18.20;99.90
7846;DHT22;3968;51.424;6.788;2022-07-29T06:34:58;18.30;99.90
7846;DHT22;3968;51.424;6.788;2022-07-29T06:37:23;18.40;99.90
7846;DHT22;3968;51.424;6.788;2022-07-29T06:39:49;18.40;99.90
7846;DHT22;3968;51.424;6.788;2022-07-29T06:42:35;18.40;99.90
7846;DHT22;3968;51.424;6.788;2022-07-29T06:45:00;18.40;99.90
7846;DHT22;3968;51.424;6.788;2022-07-29T06:47:26;18.40;99.90
7846;DHT22;3968;51.424;6.788;2022-07-29T06:49:52;18.30;99.90
7846;DHT22;3968;51.424;6.788;2022-07-29T06:52:18;18.30;99.90
7846;DHT22;3968;51.424;6.788;2022-07-29T06:54:44;18.20;99.90
7846;DHT22;3968;51.424;6.788;2022-07-29T06:57:13;17.90;99.90
7846;DHT22;3968;51.424;6.788;2022-07-29T06:59:39;17.70;99.90
7846;DHT22;3968;51.424;6.788;2022-07-29T07:02:05;17.40;99.90
7846;DHT22;3968;51.424;6.788;2022-07-29T07:04:31;17.30;99.90
7846;DHT22;3968;51.424;6.788;2022-07-29T07:06:57;17.30;99.90
7846;DHT22;3968;51.424;6.788;2022-07-29T07:09:24;17.30;99.90
7846;DHT22;3968;51.424;6.788;2022-07-29T07:11:50;17.30;99.90
7846;DHT22;3968;51.424;6.788;2022-07-29T07:14:16;17.30;99.90
7846;DHT22;3968;51.424;6.788;2022-07-29T07:16:41;17.50;99.90
7846;DHT22;3968;51.424;6.788;2022-07-29T07:19:07;17.50;99.90
7846;DHT22;3968;51.424;6.788;2022-07-29T07:21:33;17.50;99.90
7846;DHT22;3968;51.424;6.788;2022-07-29T07:23:59;17.60;99.90
7846;DHT22;3968;51.424;6.788;2022-07-29T07:26:26;17.70;99.90
7846;DHT22;3968;51.424;6.788;2022-07-29T07:28:52;17.80;99.90
7846;DHT22;3968;51.424;6.788;2022-07-29T07:31:18;17.80;99.90
7846;DHT22;3968;51.424;6.788;2022-07-29T07:33:44;17.90;99.90
7846;DHT22;3968;51.424;6.788;2022-07-29T07:36:09;18.00;99.90
7846;DHT22;3968;51.424;6.788;2022-07-29T07:38:35;18.00;99.90
7846;DHT22;3968;51.424;6.788;2022-07-29T07:41:01;18.10;99.90
7846;DHT22;3968;51.424;6.788;2022-07-29T07:43:27;18.20;99.90
7846;DHT22;3968;51.424;6.788;2022-07-29T07:45:53;18.30;99.90
7846;DHT22;3968;51.424;6.788;2022-07-29T07:48:19;18.30;99.90
7846;DHT22;3968;51.424;6.788;2022-07-29T07:50:44;18.20;99.90
7846;DHT22;3968;51.424;6.788;2022-07-29T07:53:10;18.20;99.90
7846;DHT22;3968;51.424;6.788;2022-07-29T07:55:43;18.20;99.90
7846;DHT22;3968;51.424;6.788;2022-07-29T07:58:09;18.20;99.90
7846;DHT22;3968;51.424;6.788;2022-07-29T08:00:35;18.20;99.90
7846;DHT22;3968;51.424;6.788;2022-07-29T08:03:01;18.20;99.90
7846;DHT22;3968;51.424;6.788;2022-07-29T08:05:26;18.10;99.90
7846;DHT22;3968;51.424;6.788;2022-07-29T08:07:52;18.10;99.90
7846;DHT22;3968;51.424;6.788;2022-07-29T08:10:21;18.10;99.90
7846;DHT22;3968;51.424;6.788;2022-07-29T08:13:07;18.10;99.90
7846;DHT22;3968;51.424;6.788;2022-07-29T08:15:33;18.00;99.90
7846;DHT22;3968;51.424;6.788;2022-07-29T08:17:59;18.00;99.90
7846;DHT22;3968;51.424;6.788;2022-07-29T08:20:25;18.10;99.90
7846;DHT22;3968;51.424;6.788;2022-07-29T08:22:51;18.10;99.90
7846;DHT22;3968;51.424;6.788;2022-07-29T08:25:18;18.20;99.90
7846;DHT22;3968;51.424;6.788;2022-07-29T08:27:46;18.20;99.90
7846;DHT22;3968;51.424;6.788;2022-07-29T08:30:11;18.20;99.90
7846;DHT22;3968;51.424;6.788;2022-07-29T08:32:37;18.30;99.90
7846;DHT22;3968;51.424;6.788;2022-07-29T08:35:04;18.30;99.90
7846;DHT22;3968;51.424;6.788;2022-07-29T08:37:29;18.50;99.90
7846;DHT22;3968;51.424;6.788;2022-07-29T08:39:55;18.50;99.90
7846;DHT22;3968;51.424;6.788;2022-07-29T08:42:21;18.70;99.90
7846;DHT22;3968;51.424;6.788;2022-07-29T08:44:47;18.80;99.90
7846;DHT22;3968;51.424;6.788;2022-07-29T08:47:19;18.80;99.90
7846;DHT22;3968;51.424;6.788;2022-07-29T08:49:44;18.90;99.90
7846;DHT22;3968;51.424;6.788;2022-07-29T08:52:12;19.10;99.90
7846;DHT22;3968;51.424;6.788;2022-07-29T08:54:39;19.30;99.90
7846;DHT22;3968;51.424;6.788;2022-07-29T08:57:09;19.30;99.90
7846;DHT22;3968;51.424;6.788;2022-07-29T08:59:40;19.40;99.90
7846;DHT22;3968;51.424;6.788;2022-07-29T09:02:12;19.40;99.90
7846;DHT22;3968;51.424;6.788;2022-07-29T09:04:41;19.50;99.90
7846;DHT22;3968;51.424;6.788;2022-07-29T09:07:08;19.50;99.90
7846;DHT22;3968;51.424;6.788;2022-07-29T09:09:34;19.50;99.90
7846;DHT22;3968;51.424;6.788;2022-07-29T09:12:00;19.40;99.90
7846;DHT22;3968;51.424;6.788;2022-07-29T09:14:26;19.30;99.90
7846;DHT22;3968;51.424;6.788;2022-07-29T09:17:01;19.30;99.90
7846;DHT22;3968;51.424;6.788;2022-07-29T09:19:32;19.20;99.90
7846;DHT22;3968;51.424;6.788;2022-07-29T09:22:04;19.20;99.90
7846;DHT22;3968;51.424;6.788;2022-07-29T09:24:46;19.10;99.90
7846;DHT22;3968;51.424;6.788;2022-07-29T09:27:24;19.10;99.90
7846;DHT22;3968;51.424;6.788;2022-07-29T09:30:04;19.20;99.90
7846;DHT22;3968;51.424;6.788;2022-07-29T09:32:31;19.30;99.90
7846;DHT22;3968;51.424;6.788;2022-07-29T09:37:43;19.50;99.90
7846;DHT22;3968;51.424;6.788;2022-07-29T09:40:18;19.60;99.90
7846;DHT22;3968;51.424;6.788;2022-07-29T09:42:45;19.60;99.90
7846;DHT22;3968;51.424;6.788;2022-07-29T09:45:12;19.70;99.90
7846;DHT22;3968;51.424;6.788;2022-07-29T09:47:43;19.70;99.90
7846;DHT22;3968;51.424;6.788;2022-07-29T09:50:14;19.70;99.90
7846;DHT22;3968;51.424;6.788;2022-07-29T09:52:51;19.70;99.90
7846;DHT22;3968;51.424;6.788;2022-07-29T09:55:18;19.70;99.90
7846;DHT22;3968;51.424;6.788;2022-07-29T09:57:44;19.80;99.90
7846;DHT22;3968;51.424;6.788;2022-07-29T10:00:14;19.80;99.90
7846;DHT22;3968;51.424;6.788;2022-07-29T10:02:44;19.80;99.90
7846;DHT22;3968;51.424;6.788;2022-07-29T10:05:25;19.90;99.90
7846;DHT22;3968;51.424;6.788;2022-07-29T10:07:55;19.80;99.90
7846;DHT22;3968;51.424;6.788;2022-07-29T10:10:22;19.80;99.90
7846;DHT22;3968;51.424;6.788;2022-07-29T10:12:53;19.80;99.90
7846;DHT22;3968;51.424;6.788;2022-07-29T10:15:21;19.90;99.90
7846;DHT22;3968;51.424;6.788;2022-07-29T10:17:47;20.10;99.90
7846;DHT22;3968;51.424;6.788;2022-07-29T10:20:14;20.30;99.90
7846;DHT22;3968;51.424;6.788;2022-07-29T10:22:40;20.60;99.90
7846;DHT22;3968;51.424;6.788;2022-07-29T10:25:08;20.90;99.90
7846;DHT22;3968;51.424;6.788;2022-07-29T10:27:35;21.20;99.90
7846;DHT22;3968;51.424;6.788;2022-07-29T10:30:02;21.70;99.90
7846;DHT22;3968;51.424;6.788;2022-07-29T10:40:51;25.60;99.90
7846;DHT22;3968;51.424;6.788;2022-07-29T10:43:42;25.80;99.90
7846;DHT22;3968;51.424;6.788;2022-07-29T10:46:12;26.20;99.90
7846;DHT22;3968;51.424;6.788;2022-07-29T10:49:04;26.50;99.90
7846;DHT22;3968;51.424;6.788;2022-07-29T10:51:56;26.50;99.90
7846;DHT22;3968;51.424;6.788;2022-07-29T11:05:06;32.30;92.50
7846;DHT22;3968;51.424;6.788;2022-07-29T11:07:32;33.30;85.10
7846;DHT22;3968;51.424;6.788;2022-07-29T11:15:08;36.10;56.50
7846;DHT22;3968;51.424;6.788;2022-07-29T11:20:41;36.10;52.00
7846;DHT22;3968;51.424;6.788;2022-07-29T11:26:16;35.20;51.00
7846;DHT22;3968;51.424;6.788;2022-07-29T11:29:02;33.80;52.50
7846;DHT22;3968;51.424;6.788;2022-07-29T11:31:39;35.30;49.70
7846;DHT22;3968;51.424;6.788;2022-07-29T11:45:02;35.50;44.70
7846;DHT22;3968;51.424;6.788;2022-07-29T11:47:31;34.30;48.90
7846;DHT22;3968;51.424;6.788;2022-07-29T11:49:59;32.80;51.70
7846;DHT22;3968;51.424;6.788;2022-07-29T11:52:35;31.80;55.50
7846;DHT22;3968;51.424;6.788;2022-07-29T11:55:04;30.60;58.70
7846;DHT22;3968;51.424;6.788;2022-07-29T11:57:31;29.90;71.00
7846;DHT22;3968;51.424;6.788;2022-07-29T11:59:57;29.30;81.80
7846;DHT22;3968;51.424;6.788;2022-07-29T12:02:24;28.20;95.90
7846;DHT22;3968;51.424;6.788;2022-07-29T12:04:54;27.80;99.90
7846;DHT22;3968;51.424;6.788;2022-07-29T12:07:40;27.20;99.90
7846;DHT22;3968;51.424;6.788;2022-07-29T12:10:07;27.20;98.20
7846;DHT22;3968;51.424;6.788;2022-07-29T12:12:34;27.10;97.60
7846;DHT22;3968;51.424;6.788;2022-07-29T12:15:17;26.90;99.90
7846;DHT22;3968;51.424;6.788;2022-07-29T12:17:47;26.70;99.90
7846;DHT22;3968;51.424;6.788;2022-07-29T12:20:13;26.40;99.90
7846;DHT22;3968;51.424;6.788;2022-07-29T12:22:41;26.10;99.90
7846;DHT22;3968;51.424;6.788;2022-07-29T12:25:13;25.80;99.90
7846;DHT22;3968;51.424;6.788;2022-07-29T12:27:41;25.60;99.90
7846;DHT22;3968;51.424;6.788;2022-07-29T12:30:11;25.40;99.90
7846;DHT22;3968;51.424;6.788;2022-07-29T12:32:47;25.30;99.90
7846;DHT22;3968;51.424;6.788;2022-07-29T12:35:19;25.40;99.90
7846;DHT22;3968;51.424;6.788;2022-07-29T12:37:49;25.50;99.90
7846;DHT22;3968;51.424;6.788;2022-07-29T12:40:17;25.50;99.90
7846;DHT22;3968;51.424;6.788;2022-07-29T12:45:35;25.80;99.90
7846;DHT22;3968;51.424;6.788;2022-07-29T12:48:01;25.80;99.90
7846;DHT22;3968;51.424;6.788;2022-07-29T12:50:27;26.00;99.90
7846;DHT22;3968;51.424;6.788;2022-07-29T12:52:52;26.00;99.90
7846;DHT22;3968;51.424;6.788;2022-07-29T12:55:38;26.10;99.90
7846;DHT22;3968;51.424;6.788;2022-07-29T12:58:04;26.20;99.90
7846;DHT22;3968;51.424;6.788;2022-07-29T13:00:30;26.40;99.90
7846;DHT22;3968;51.424;6.788;2022-07-29T13:02:57;26.60;97.00
7846;DHT22;3968;51.424;6.788;2022-07-29T13:05:23;26.70;97.30
7846;DHT22;3968;51.424;6.788;2022-07-29T13:07:50;27.30;95.40
7846;DHT22;3968;51.424;6.788;2022-07-29T13:10:21;27.80;91.60
7846;DHT22;3968;51.424;6.788;2022-07-29T13:13:07;28.00;90.40
7846;DHT22;3968;51.424;6.788;2022-07-29T13:15:40;28.40;81.00
7846;DHT22;3968;51.424;6.788;2022-07-29T13:18:30;28.40;82.40
7846;DHT22;3968;51.424;6.788;2022-07-29T13:20:56;28.70;79.40
7846;DHT22;3968;51.424;6.788;2022-07-29T13:23:22;28.50;75.20
7846;DHT22;3968;51.424;6.788;2022-07-29T13:25:48;28.20;76.90
7846;DHT22;3968;51.424;6.788;2022-07-29T13:28:13;28.00;81.10
7846;DHT22;3968;51.424;6.788;2022-07-29T13:30:40;27.90;82.40
7846;DHT22;3968;51.424;6.788;2022-07-29T13:33:06;28.90;75.90
7846;DHT22;3968;51.424;6.788;2022-07-29T13:35:32;31.40;63.70
7846;DHT22;3968;51.424;6.788;2022-07-29T13:37:58;33.20;53.20
7846;DHT22;3968;51.424;6.788;2022-07-29T13:40:23;34.40;50.10
7846;DHT22;3968;51.424;6.788;2022-07-29T13:42:54;35.60;44.80
7846;DHT22;3968;51.424;6.788;2022-07-29T13:45:20;35.70;43.80
7846;DHT22;3968;51.424;6.788;2022-07-29T13:47:46;36.70;41.50
7846;DHT22;3968;51.424;6.788;2022-07-29T13:50:11;37.30;38.80
7846;DHT22;3968;51.424;6.788;2022-07-29T13:52:37;36.80;38.60
7846;DHT22;3968;51.424;6.788;2022-07-29T13:55:04;37.20;37.10
7846;DHT22;3968;51.424;6.788;2022-07-29T13:57:30;37.10;36.40
7846;DHT22;3968;51.424;6.788;2022-07-29T13:59:56;37.30;35.80
7846;DHT22;3968;51.424;6.788;2022-07-29T14:02:22;37.30;35.40
7846;DHT22;3968;51.424;6.788;2022-07-29T14:04:48;37.50;35.00
7846;DHT22;3968;51.424;6.788;2022-07-29T14:07:14;37.70;34.10
7846;DHT22;3968;51.424;6.788;2022-07-29T14:09:39;37.20;33.20
7846;DHT22;3968;51.424;6.788;2022-07-29T14:12:08;37.10;33.90
7846;DHT22;3968;51.424;6.788;2022-07-29T14:14:35;36.70;34.50
7846;DHT22;3968;51.424;6.788;2022-07-29T14:17:04;36.60;34.10
7846;DHT22;3968;51.424;6.788;2022-07-29T14:19:31;35.50;35.40
7846;DHT22;3968;51.424;6.788;2022-07-29T14:22:02;34.90;35.70
7846;DHT22;3968;51.424;6.788;2022-07-29T14:24:28;34.10;36.50
7846;DHT22;3968;51.424;6.788;2022-07-29T14:26:53;35.00;34.80
7846;DHT22;3968;51.424;6.788;2022-07-29T14:29:22;35.10;34.70
7846;DHT22;3968;51.424;6.788;2022-07-29T14:31:48;35.00;34.90
7846;DHT22;3968;51.424;6.788;2022-07-29T14:34:14;34.60;35.50
7846;DHT22;3968;51.424;6.788;2022-07-29T14:36:40;34.20;36.30
7846;DHT22;3968;51.424;6.788;2022-07-29T14:39:06;33.70;36.90
7846;DHT22;3968;51.424;6.788;2022-07-29T14:41:32;33.50;37.00
7846;DHT22;3968;51.424;6.788;2022-07-29T14:43:58;33.00;37.40
7846;DHT22;3968;51.424;6.788;2022-07-29T14:46:26;32.30;38.40
7846;DHT22;3968;51.424;6.788;2022-07-29T14:48:52;32.20;38.90
7846;DHT22;3968;51.424;6.788;2022-07-29T14:51:17;31.90;38.60
7846;DHT22;3968;51.424;6.788;2022-07-29T14:53:43;31.70;39.30
7846;DHT22;3968;51.424;6.788;2022-07-29T14:56:09;31.50;40.20
7846;DHT22;3968;51.424;6.788;2022-07-29T14:58:35;30.70;41.40
7846;DHT22;3968;51.424;6.788;2022-07-29T15:01:01;30.30;42.00
7846;DHT22;3968;51.424;6.788;2022-07-29T15:03:27;29.90;43.20
7846;DHT22;3968;51.424;6.788;2022-07-29T15:05:53;29.60;42.90
7846;DHT22;3968;51.424;6.788;2022-07-29T15:08:19;29.50;43.10
7846;DHT22;3968;51.424;6.788;2022-07-29T15:10:45;29.50;42.60
7846;DHT22;3968;51.424;6.788;2022-07-29T15:13:10;29.60;42.60
7846;DHT22;3968;51.424;6.788;2022-07-29T15:15:36;29.40;42.90
7846;DHT22;3968;51.424;6.788;2022-07-29T15:18:02;29.30;43.60
7846;DHT22;3968;51.424;6.788;2022-07-29T15:20:28;29.80;43.60
7846;DHT22;3968;51.424;6.788;2022-07-29T15:22:54;30.70;43.10
7846;DHT22;3968;51.424;6.788;2022-07-29T15:25:22;31.80;41.50
7846;DHT22;3968;51.424;6.788;2022-07-29T15:27:48;33.30;39.60
7846;DHT22;3968;51.424;6.788;2022-07-29T15:30:13;33.50;38.70
7846;DHT22;3968;51.424;6.788;2022-07-29T15:32:42;33.90;37.50
7846;DHT22;3968;51.424;6.788;2022-07-29T15:35:08;33.20;37.60
7846;DHT22;3968;51.424;6.788;2022-07-29T15:37:36;32.70;38.30
7846;DHT22;3968;51.424;6.788;2022-07-29T15:40:02;32.10;39.00
7846;DHT22;3968;51.424;6.788;2022-07-29T15:42:28;31.50;39.30
7846;DHT22;3968;51.424;6.788;2022-07-29T15:44:53;31.30;39.90
7846;DHT22;3968;51.424;6.788;2022-07-29T15:47:20;30.90;40.00
7846;DHT22;3968;51.424;6.788;2022-07-29T15:49:46;30.10;40.80
7846;DHT22;3968;51.424;6.788;2022-07-29T15:52:11;30.10;41.20
7846;DHT22;3968;51.424;6.788;2022-07-29T15:54:38;30.10;41.00
7846;DHT22;3968;51.424;6.788;2022-07-29T15:57:05;29.90;40.20
7846;DHT22;3968;51.424;6.788;2022-07-29T15:59:32;29.50;40.70
7846;DHT22;3968;51.424;6.788;2022-07-29T16:01:58;29.20;41.40
7846;DHT22;3968;51.424;6.788;2022-07-29T16:04:25;28.80;42.50
7846;DHT22;3968;51.424;6.788;2022-07-29T16:06:51;28.50;42.80
7846;DHT22;3968;51.424;6.788;2022-07-29T16:09:17;28.20;43.40
7846;DHT22;3968;51.424;6.788;2022-07-29T16:11:43;28.10;44.40
7846;DHT22;3968;51.424;6.788;2022-07-29T16:14:10;27.90;45.10
7846;DHT22;3968;51.424;6.788;2022-07-29T16:16:37;27.80;46.00
7846;DHT22;3968;51.424;6.788;2022-07-29T16:19:03;27.60;46.80
7846;DHT22;3968;51.424;6.788;2022-07-29T16:21:29;27.40;47.60
7846;DHT22;3968;51.424;6.788;2022-07-29T16:23:59;27.20;47.80
7846;DHT22;3968;51.424;6.788;2022-07-29T16:26:25;27.10;48.60
7846;DHT22;3968;51.424;6.788;2022-07-29T16:28:51;27.00;49.70
7846;DHT22;3968;51.424;6.788;2022-07-29T16:31:17;27.10;50.30
7846;DHT22;3968;51.424;6.788;2022-07-29T16:33:46;27.10;50.30
7846;DHT22;3968;51.424;6.788;2022-07-29T16:36:12;27.10;51.00
7846;DHT22;3968;51.424;6.788;2022-07-29T16:38:37;27.20;50.90
7846;DHT22;3968;51.424;6.788;2022-07-29T16:41:03;27.10;51.40
7846;DHT22;3968;51.424;6.788;2022-07-29T16:43:29;27.20;52.70
7846;DHT22;3968;51.424;6.788;2022-07-29T16:45:54;27.10;53.90
7846;DHT22;3968;51.424;6.788;2022-07-29T16:48:20;27.00;54.50
7846;DHT22;3968;51.424;6.788;2022-07-29T16:50:46;26.90;55.70
7846;DHT22;3968;51.424;6.788;2022-07-29T16:53:11;26.70;57.30
7846;DHT22;3968;51.424;6.788;2022-07-29T16:55:37;26.80;58.60
7846;DHT22;3968;51.424;6.788;2022-07-29T16:58:03;26.70;59.40
7846;DHT22;3968;51.424;6.788;2022-07-29T17:00:28;26.70;60.10
7846;DHT22;3968;51.424;6.788;2022-07-29T17:02:54;26.50;60.40
7846;DHT22;3968;51.424;6.788;2022-07-29T17:05:20;26.60;59.70
7846;DHT22;3968;51.424;6.788;2022-07-29T17:07:46;26.50;58.80